Time;durP1;ratioP1;P1;durP2;ratioP2;P2;SDS_P1;SDS_P2;PMS_P1;PMS_P2;Temp;Humidity;BMP_temperature;BMP_pressure;BME280_temperature;BME280_humidity;BME280_pressure;Samples;Min_cycle;Max_cycle;Signal;HPM_P1;HPM_P2
2021/05/22 00:01:40;;;;;;;3.90;1.00;;;;;;;10.52;63.23;96027.13;127698;1101;29105;-89
2021/05/22 00:04:10;;;;;;;2.30;1.00;;;;;;;10.30;63.58;96027.78;127766;1101;29719;-90
2021/05/22 00:06:39;;;;;;;2.30;1.20;;;;;;;10.20;64.32;96033.20;127722;1101;25623;-85
2021/05/22 00:09:09;;;;;;;1.35;0.83;;;;;;;10.05;65.15;96021.77;127763;1101;26400;-90
2021/05/22 00:11:39;;;;;;;1.88;1.10;;;;;;;10.04;65.22;96024.70;127573;1101;27500;-84
2021/05/22 00:14:09;;;;;;;0.90;0.80;;;;;;;10.04;65.16;96030.80;127605;1101;29587;-89
2021/05/22 00:16:39;;;;;;;3.83;1.10;;;;;;;10.02;64.93;96025.00;127774;1096;26683;-85
2021/05/22 00:19:09;;;;;;;1.28;0.60;;;;;;;10.03;65.10;96008.03;127711;1101;23813;-87
2021/05/22 00:21:39;;;;;;;1.10;0.90;;;;;;;9.96;65.01;96004.95;127742;1096;30397;-87
2021/05/22 00:24:11;;;;;;;2.48;1.15;;;;;;;9.99;65.74;96001.75;127824;1101;29589;-86
2021/05/22 00:26:41;;;;;;;1.48;1.08;;;;;;;9.88;65.72;96005.63;127623;1097;25508;-85
2021/05/22 00:29:11;;;;;;;1.68;1.10;;;;;;;9.68;66.12;95997.97;127760;1097;22806;-86
2021/05/22 00:31:41;;;;;;;1.53;1.05;;;;;;;9.71;66.59;95995.55;127832;1101;22944;-88
2021/05/22 00:34:11;;;;;;;1.58;1.15;;;;;;;9.67;66.40;95991.10;127795;1101;29264;-88
2021/05/22 00:36:41;;;;;;;1.83;1.00;;;;;;;9.52;67.02;95987.60;127747;1096;27178;-85
2021/05/22 00:39:11;;;;;;;1.28;0.90;;;;;;;9.46;66.82;95983.47;127718;1101;27337;-90
2021/05/22 00:41:41;;;;;;;4.00;1.13;;;;;;;9.50;67.00;95973.88;127680;1096;37337;-89
2021/05/22 00:44:11;;;;;;;1.60;0.98;;;;;;;9.57;67.09;95970.07;127718;1101;33462;-87
2021/05/22 00:46:41;;;;;;;1.98;1.00;;;;;;;9.61;67.35;95960.50;127792;1101;28294;-87
2021/05/22 00:49:11;;;;;;;2.13;1.50;;;;;;;9.64;66.73;95951.98;127809;1101;25371;-90
2021/05/22 00:51:41;;;;;;;1.85;1.15;;;;;;;9.69;67.22;95959.84;127605;1101;26081;-89
2021/05/22 00:54:11;;;;;;;1.10;0.90;;;;;;;9.68;67.47;95958.27;127631;1101;23206;-85
2021/05/22 00:56:41;;;;;;;2.30;1.23;;;;;;;9.71;66.85;95947.09;127561;1101;25039;-85
2021/05/22 00:59:18;;;;;;;3.15;1.45;;;;;;;9.73;67.04;95951.05;127755;1101;25115;-86
2021/05/22 01:01:48;;;;;;;2.38;0.83;;;;;;;9.68;67.01;95958.27;127706;1101;23319;-86
2021/05/22 01:04:21;;;;;;;1.38;1.10;;;;;;;9.56;66.95;95961.34;127798;1097;27350;-87
2021/05/22 01:06:50;;;;;;;1.35;1.25;;;;;;;9.41;67.14;95958.92;127810;1101;29165;-85
2021/05/22 01:09:23;;;;;;;1.80;0.90;;;;;;;9.16;67.89;95962.72;127726;1097;29408;-86
2021/05/22 01:11:57;;;;;;;1.70;1.10;;;;;;;8.98;68.17;95963.45;127787;1101;22783;-87
2021/05/22 01:14:32;;;;;;;1.13;0.93;;;;;;;8.95;68.62;95951.59;127765;1101;45999;-87
2021/05/22 01:17:03;;;;;;;1.38;0.90;;;;;;;8.99;68.29;95951.81;127686;1101;29033;-84
2021/05/22 01:19:41;;;;;;;1.88;1.08;;;;;;;9.08;68.59;95950.12;127707;1101;29466;-85
2021/05/22 01:22:13;;;;;;;1.25;0.90;;;;;;;9.12;68.42;95951.11;127768;1101;22773;-84
2021/05/22 01:24:50;;;;;;;1.40;1.00;;;;;;;9.12;68.41;95945.83;127743;1101;26993;-86
2021/05/22 01:27:20;;;;;;;1.20;0.90;;;;;;;9.19;68.17;95944.42;127807;1101;23661;-84
2021/05/22 01:29:50;;;;;;;4.03;0.80;;;;;;;9.23;68.47;95945.41;127665;1101;23430;-85
2021/05/22 01:32:20;;;;;;;2.15;0.85;;;;;;;9.27;68.26;95932.39;127746;1101;28715;-85
2021/05/22 01:34:50;;;;;;;1.75;0.90;;;;;;;9.27;68.63;95948.27;127759;1101;24193;-87
2021/05/22 01:37:20;;;;;;;1.58;0.93;;;;;;;9.22;68.07;95941.20;127828;1101;23701;-87
2021/05/22 01:39:50;;;;;;;2.43;1.00;;;;;;;9.09;68.40;95931.33;127814;1101;23561;-85
2021/05/22 01:42:20;;;;;;;1.25;1.05;;;;;;;9.10;68.19;95940.04;127687;1101;29322;-84
2021/05/22 01:44:52;;;;;;;1.03;0.85;;;;;;;9.09;68.48;95935.83;127722;1096;27212;-86
2021/05/22 01:47:24;;;;;;;2.43;0.93;;;;;;;9.04;68.35;95931.40;127767;1101;22759;-83
2021/05/22 01:49:55;;;;;;;1.25;0.80;;;;;;;8.97;68.73;95943.38;127794;1096;22779;-85
2021/05/22 01:52:26;;;;;;;2.60;0.80;;;;;;;8.95;68.59;95943.67;127800;1096;22794;-87
2021/05/22 01:54:57;;;;;;;1.20;0.87;;;;;;;8.88;68.94;95938.74;127841;1101;23469;-85
2021/05/22 01:57:28;;;;;;;1.07;0.80;;;;;;;8.90;69.26;95939.24;127784;1101;25059;-86
2021/05/22 01:59:59;;;;;;;2.35;1.20;;;;;;;8.84;68.66;95934.28;127801;1096;28163;-88
2021/05/22 02:02:29;;;;;;;2.43;0.93;;;;;;;8.81;68.96;95930.36;127817;1101;22772;-85
2021/05/22 02:05:03;;;;;;;1.03;0.73;;;;;;;8.85;69.26;95933.21;127816;1101;22927;-85
2021/05/22 02:07:36;;;;;;;1.48;0.93;;;;;;;8.93;69.14;95928.09;127711;1101;28315;-84
2021/05/22 02:10:10;;;;;;;1.18;1.00;;;;;;;9.02;69.16;95932.76;127766;1101;22803;-87
2021/05/22 02:12:41;;;;;;;1.43;0.83;;;;;;;8.96;69.42;95928.59;127704;1096;27709;-89
2021/05/22 02:15:15;;;;;;;1.40;0.95;;;;;;;8.98;70.04;95926.45;127782;1097;30831;-88
2021/05/22 02:17:48;;;;;;;1.48;0.70;;;;;;;9.00;69.52;95925.09;127820;1101;22797;-90
2021/05/22 02:20:20;;;;;;;1.48;0.90;;;;;;;9.06;70.20;95923.18;127767;1101;32171;-90
2021/05/22 02:22:52;;;;;;;1.80;0.95;;;;;;;9.21;69.58;95913.18;127796;1101;25507;-85
2021/05/22 02:25:22;;;;;;;3.03;0.95;;;;;;;9.23;69.70;95895.16;127750;1101;24326;-84
2021/05/22 02:27:53;;;;;;;1.10;0.83;;;;;;;9.16;69.59;95899.25;127751;1101;28011;-85
2021/05/22 02:30:24;;;;;;;2.58;1.00;;;;;;;9.12;69.89;95893.73;127811;1101;29527;-84
2021/05/22 02:32:56;;;;;;;1.65;1.10;;;;;;;9.10;70.40;95889.80;127724;1101;26743;-87
2021/05/22 02:35:28;;;;;;;1.18;0.88;;;;;;;9.11;71.00;95891.38;127766;1101;22834;-87
2021/05/22 02:37:59;;;;;;;1.85;1.00;;;;;;;9.26;71.23;95883.22;127791;1096;26260;-87
2021/05/22 02:40:30;;;;;;;2.88;1.10;;;;;;;9.39;71.24;95893.08;127822;1101;22794;-88
2021/05/22 02:43:05;;;;;;;1.93;0.93;;;;;;;9.48;70.93;95893.22;127765;1101;24202;-84
2021/05/22 02:45:41;;;;;;;2.13;0.80;;;;;;;9.63;70.83;95886.91;127695;1101;22999;-85
2021/05/22 02:48:18;;;;;;;1.65;1.03;;;;;;;9.79;70.39;95888.22;127349;1104;24414;-87
2021/05/22 02:50:50;;;;;;;2.15;1.05;;;;;;;9.94;70.14;95877.37;127712;1101;28104;-85
2021/05/22 02:53:22;;;;;;;1.23;0.90;;;;;;;10.02;69.91;95879.36;127719;1097;27761;-89
2021/05/22 02:55:54;;;;;;;1.33;1.00;;;;;;;9.99;69.54;95874.65;127682;1101;22799;-85
2021/05/22 02:58:26;;;;;;;1.58;1.00;;;;;;;9.89;69.37;95872.17;127773;1101;25257;-85
2021/05/22 03:00:56;;;;;;;1.80;1.30;;;;;;;9.86;69.17;95869.33;127740;1101;28830;-89
2021/05/22 03:03:27;;;;;;;1.45;0.70;;;;;;;9.88;69.28;95864.52;127687;1101;28553;-87
2021/05/22 03:05:56;;;;;;;;;;;;;;;9.88;69.08;95867.17;127817;1101;26935;-83
2021/05/22 03:08:27;;;;;;;2.38;1.05;;;;;;;9.84;68.90;95866.95;127728;1101;27249;-88
2021/05/22 03:10:57;;;;;;;1.68;0.88;;;;;;;9.80;69.65;95858.81;127883;1101;23439;-88
2021/05/22 03:13:27;;;;;;;2.33;1.15;;;;;;;9.76;69.58;95864.98;127755;1101;26200;-91
2021/05/22 03:15:57;;;;;;;2.65;0.98;;;;;;;9.72;69.49;95869.30;127846;1101;35391;-87
2021/05/22 03:18:27;;;;;;;0.80;0.70;;;;;;;9.66;69.79;95870.44;127877;1101;25493;-88
2021/05/22 03:20:57;;;;;;;1.20;1.10;;;;;;;9.67;69.83;95872.79;127778;1101;31962;-87
2021/05/22 03:23:27;;;;;;;3.20;0.95;;;;;;;9.67;69.85;95866.72;127786;1101;28351;-86
2021/05/22 03:25:57;;;;;;;1.33;0.90;;;;;;;9.73;69.91;95871.65;127853;1101;27088;-90
2021/05/22 03:28:27;;;;;;;2.20;0.95;;;;;;;9.76;69.90;95865.77;127883;1101;25070;-86
2021/05/22 03:30:56;;;;;;;3.03;0.95;;;;;;;9.86;70.25;95864.03;127842;1096;30347;-85
2021/05/22 03:33:26;;;;;;;1.68;0.90;;;;;;;9.89;69.97;95874.82;127837;1101;27038;-89
2021/05/22 03:35:56;;;;;;;1.50;0.60;;;;;;;9.99;70.21;95872.00;127763;1101;28733;-86
2021/05/22 03:38:26;;;;;;;2.98;1.23;;;;;;;10.07;69.92;95868.66;127798;1101;24116;-87
2021/05/22 03:40:56;;;;;;;2.83;0.93;;;;;;;10.21;70.08;95870.54;127676;1097;28316;-88
2021/05/22 03:43:26;;;;;;;2.45;1.10;;;;;;;10.34;69.86;95875.09;127591;1101;29946;-85
2021/05/22 03:46:04;;;;;;;1.73;0.90;;;;;;;10.52;70.04;95870.77;127643;1097;26229;-85
2021/05/22 03:48:35;;;;;;;1.05;0.90;;;;;;;10.68;70.42;95878.11;127655;1097;32039;-84
2021/05/22 03:51:05;;;;;;;2.18;0.80;;;;;;;10.81;69.94;95868.58;127725;1101;38807;-86
2021/05/22 03:53:35;;;;;;;3.03;1.03;;;;;;;10.98;70.07;95870.63;127732;1101;89668;-88
2021/05/22 03:56:05;;;;;;;1.68;1.10;;;;;;;11.13;70.17;95867.64;127750;1101;30254;-86
2021/05/22 03:58:35;;;;;;;1.65;1.08;;;;;;;11.29;70.16;95860.91;127737;1097;26266;-87
2021/05/22 04:01:05;;;;;;;1.23;0.90;;;;;;;11.39;69.89;95864.38;127719;1101;31200;-86
2021/05/22 04:03:35;;;;;;;1.40;1.00;;;;;;;11.33;70.29;95860.30;127759;1101;25325;-84
2021/05/22 04:06:05;;;;;;;2.00;1.00;;;;;;;11.27;70.24;95852.46;127738;1101;28680;-85
2021/05/22 04:08:35;;;;;;;2.93;1.78;;;;;;;11.08;69.65;95857.13;127715;1096;31931;-86
2021/05/22 04:11:05;;;;;;;2.68;1.58;;;;;;;10.95;69.59;95863.24;127637;1101;25243;-85
2021/05/22 04:13:35;;;;;;;2.30;1.50;;;;;;;10.96;69.68;95867.47;127803;1096;22779;-86
2021/05/22 04:16:06;;;;;;;3.30;1.80;;;;;;;10.97;70.23;95876.98;127772;1101;29416;-86
2021/05/22 04:18:35;;;;;;;2.40;1.63;;;;;;;10.96;70.39;95886.81;127643;1101;25710;-86
2021/05/22 04:21:06;;;;;;;2.40;1.60;;;;;;;10.97;70.62;95887.59;127733;1101;26906;-86
2021/05/22 04:23:36;;;;;;;3.80;1.80;;;;;;;11.00;70.73;95897.63;127649;1101;23752;-87
2021/05/22 04:26:05;;;;;;;3.80;1.17;;;;;;;11.07;70.83;95889.26;127769;1101;23849;-87
2021/05/22 04:28:35;;;;;;;2.80;1.60;;;;;;;11.16;71.11;95880.30;127713;1101;29398;-86
2021/05/22 04:31:05;;;;;;;3.23;1.23;;;;;;;11.18;71.31;95878.13;127624;1101;27806;-85
2021/05/22 04:33:35;;;;;;;2.10;1.23;;;;;;;11.09;71.22;95890.52;127724;1101;24365;-85
2021/05/22 04:36:07;;;;;;;3.80;0.90;;;;;;;11.00;71.84;95900.28;127596;1101;24243;-86
2021/05/22 04:38:37;;;;;;;2.93;1.50;;;;;;;10.87;71.49;95901.09;127684;1101;27998;-87
2021/05/22 04:41:07;;;;;;;1.58;1.13;;;;;;;10.82;71.34;95906.48;127736;1101;29952;-88
2021/05/22 04:43:37;;;;;;;2.30;0.90;;;;;;;10.83;71.77;95903.53;127705;1101;26849;-88
2021/05/22 04:46:10;;;;;;;1.43;0.80;;;;;;;10.90;71.47;95893.32;127739;1101;29663;-86
2021/05/22 04:48:40;;;;;;;1.15;0.95;;;;;;;11.03;71.85;95889.08;127738;1101;27146;-85
2021/05/22 04:51:11;;;;;;;1.43;1.00;;;;;;;11.15;71.66;95888.56;127677;1101;22832;-85
2021/05/22 04:53:42;;;;;;;1.33;1.00;;;;;;;11.25;71.99;95888.31;127782;1101;23027;-86
2021/05/22 04:56:12;;;;;;;1.08;0.98;;;;;;;11.33;71.71;95889.48;127728;1101;24714;-88
2021/05/22 04:58:42;;;;;;;4.08;1.68;;;;;;;11.43;71.60;95883.95;127726;1096;26264;-85
2021/05/22 05:01:11;;;;;;;1.25;0.90;;;;;;;11.64;71.03;95876.28;127758;1096;26143;-87
2021/05/22 05:03:41;;;;;;;0.98;0.83;;;;;;;11.85;70.26;95875.52;127825;1101;23246;-89
2021/05/22 05:06:11;;;;;;;1.75;0.85;;;;;;;12.18;69.97;95856.62;127734;1101;25677;-90
2021/05/22 05:08:41;;;;;;;1.85;1.05;;;;;;;12.49;70.12;95861.89;127596;1101;22803;-89
2021/05/22 05:11:11;;;;;;;3.15;1.55;;;;;;;12.84;69.43;95864.65;127788;1101;26217;-86
2021/05/22 05:13:41;;;;;;;1.28;0.93;;;;;;;13.78;68.99;95861.21;127802;1101;25367;-87
2021/05/22 05:16:13;;;;;;;1.60;1.00;;;;;;;15.96;68.11;95865.00;127834;1101;27505;-88
2021/05/22 05:18:43;;;;;;;1.28;0.80;;;;;;;16.96;63.23;95862.86;127438;1097;24557;-88
2021/05/22 05:21:13;;;;;;;1.70;0.98;;;;;;;16.87;61.81;95850.36;127739;1101;27534;-90
2021/05/22 05:23:43;;;;;;;1.28;0.80;;;;;;;16.45;61.55;95852.47;127760;1101;28200;-87
2021/05/22 05:26:13;;;;;;;1.40;1.00;;;;;;;16.14;61.87;95869.04;127737;1101;23734;-88
2021/05/22 05:28:43;;;;;;;1.53;0.80;;;;;;;17.33;62.84;95864.36;127656;1101;61341;-86
2021/05/22 05:31:12;;;;;;;3.00;1.10;;;;;;;18.31;61.66;95870.08;127703;1101;23896;-91
2021/05/22 05:33:42;;;;;;;1.78;0.90;;;;;;;19.24;59.19;95867.63;127572;1101;25517;-89
2021/05/22 05:36:12;;;;;;;2.45;1.10;;;;;;;18.66;58.43;95878.23;127740;1101;23240;-87
2021/05/22 05:38:43;;;;;;;2.13;1.15;;;;;;;18.33;56.98;95875.88;127683;1101;34295;-89
2021/05/22 05:41:13;;;;;;;1.78;0.83;;;;;;;17.61;55.42;95877.78;127717;1101;22996;-86
2021/05/22 05:43:43;;;;;;;2.18;1.10;;;;;;;16.75;56.64;95873.68;127708;1097;27044;-91
2021/05/22 05:46:13;;;;;;;2.18;1.08;;;;;;;16.26;56.86;95893.13;127833;1101;24873;-91
2021/05/22 05:48:43;;;;;;;2.50;1.03;;;;;;;15.93;56.68;95890.50;127780;1096;33553;-91
2021/05/22 05:51:13;;;;;;;2.53;1.40;;;;;;;15.63;57.65;95875.70;127681;1101;32016;-88
2021/05/22 05:53:43;;;;;;;1.20;1.00;;;;;;;15.34;59.43;95869.30;127666;1101;83712;-85
2021/05/22 05:56:13;;;;;;;1.05;0.95;;;;;;;14.88;60.35;95864.89;127721;1101;27897;-86
2021/05/22 05:58:43;;;;;;;2.08;1.10;;;;;;;14.63;61.42;95874.59;127792;1101;28873;-89
2021/05/22 06:01:14;;;;;;;1.73;1.30;;;;;;;14.58;62.52;95882.80;127811;1101;33945;-90
2021/05/22 06:03:44;;;;;;;2.08;1.18;;;;;;;14.65;62.35;95891.09;127763;1096;29225;-87
2021/05/22 06:06:14;;;;;;;2.40;1.20;;;;;;;14.62;61.88;95894.38;127804;1096;25893;-88
2021/05/22 06:08:44;;;;;;;1.60;1.20;;;;;;;14.63;62.15;95895.16;127806;1101;26461;-87
2021/05/22 06:11:16;;;;;;;3.78;1.40;;;;;;;14.66;62.31;95887.31;127758;1101;42832;-87
2021/05/22 06:13:47;;;;;;;2.58;1.30;;;;;;;14.66;62.68;95871.31;127706;1101;41932;-85
2021/05/22 06:16:23;;;;;;;1.73;0.90;;;;;;;14.64;62.80;95878.05;127741;1101;24818;-86
2021/05/22 06:18:53;;;;;;;1.30;1.15;;;;;;;14.52;62.82;95870.75;127806;1096;23708;-87
2021/05/22 06:21:23;;;;;;;1.60;1.00;;;;;;;14.41;63.50;95886.29;127798;1101;23114;-89
2021/05/22 06:23:54;;;;;;;2.70;1.10;;;;;;;14.42;63.98;95893.19;127806;1101;30543;-87
2021/05/22 06:26:24;;;;;;;1.50;1.00;;;;;;;14.45;63.86;95897.91;127743;1101;29938;-87
2021/05/22 06:28:55;;;;;;;2.40;1.00;;;;;;;14.58;63.72;95906.80;127770;1101;27077;-90
2021/05/22 06:31:25;;;;;;;4.58;1.00;;;;;;;14.69;63.19;95902.67;127727;1101;29733;-87
2021/05/22 06:33:55;;;;;;;2.15;0.93;;;;;;;14.83;62.91;95897.89;127767;1101;41179;-86
2021/05/22 06:36:27;;;;;;;2.20;1.25;;;;;;;14.97;63.24;95888.88;127701;1101;29077;-85
2021/05/22 06:38:57;;;;;;;1.55;0.95;;;;;;;15.08;63.37;95890.84;127772;1101;28858;-86
2021/05/22 06:41:28;;;;;;;1.90;1.15;;;;;;;15.12;63.30;95882.96;127774;1097;28529;-86
2021/05/22 06:43:58;;;;;;;2.25;1.20;;;;;;;15.14;63.27;95894.09;127807;1101;29393;-86
2021/05/22 06:49:18;;;;;;;1.43;1.10;;;;;;;14.94;63.27;95897.53;127719;1096;31639;-87
2021/05/22 06:51:50;;;;;;;2.15;1.20;;;;;;;14.96;63.39;95889.98;127803;1101;30132;-86
2021/05/22 06:54:19;;;;;;;2.03;1.30;;;;;;;15.01;63.56;95876.44;127761;1101;26448;-89
2021/05/22 06:56:49;;;;;;;1.93;1.30;;;;;;;15.10;63.95;95880.63;127743;1101;22818;-88
2021/05/22 06:59:19;;;;;;;3.00;1.20;;;;;;;15.16;64.04;95878.53;127686;1101;27841;-88
2021/05/22 07:01:50;;;;;;;2.58;1.53;;;;;;;15.22;63.98;95884.48;127777;1101;26259;-86
2021/05/22 07:04:20;;;;;;;1.88;1.23;;;;;;;15.33;64.28;95890.97;127786;1101;33442;-86
2021/05/22 07:06:50;;;;;;;2.28;1.40;;;;;;;15.37;63.80;95892.69;127787;1101;27216;-85
2021/05/22 07:09:20;;;;;;;1.70;1.13;;;;;;;15.39;63.80;95893.13;127795;1101;24102;-88
2021/05/22 07:11:50;;;;;;;1.98;0.90;;;;;;;15.41;63.13;95896.26;127789;1101;22921;-87
2021/05/22 07:14:20;;;;;;;2.28;1.40;;;;;;;15.28;62.22;95891.95;127733;1101;29197;-85
2021/05/22 07:16:50;;;;;;;1.17;1.00;;;;;;;15.20;62.68;95884.80;127815;1101;24840;-87
2021/05/22 07:19:19;;;;;;;1.10;0.83;;;;;;;15.19;63.17;95883.21;127766;1101;23498;-88
2021/05/22 07:21:51;;;;;;;4.58;1.33;;;;;;;15.20;63.23;95874.13;127846;1101;23747;-88
2021/05/22 07:24:22;;;;;;;2.35;1.13;;;;;;;15.19;63.13;95875.20;127807;1101;24790;-87
2021/05/22 07:26:52;;;;;;;1.35;0.98;;;;;;;15.17;63.06;95885.43;127725;1101;28944;-84
2021/05/22 07:29:21;;;;;;;;;;;;;;;15.15;63.52;95884.98;127792;1101;23409;-88
2021/05/22 07:31:51;;;;;;;2.10;1.00;;;;;;;15.16;63.81;95878.53;127829;1101;22646;-87
2021/05/22 07:34:20;;;;;;;;;;;;;;;15.19;64.23;95888.55;127833;1101;23738;-87
2021/05/22 07:36:50;;;;;;;2.78;1.28;;;;;;;15.32;64.34;95870.72;127730;1101;23543;-88
2021/05/22 07:39:20;;;;;;;2.58;1.38;;;;;;;15.43;63.95;95867.33;127745;1101;28118;-88
2021/05/22 07:41:50;;;;;;;3.53;1.10;;;;;;;15.52;63.80;95872.61;127782;1101;22796;-85
2021/05/22 07:44:20;;;;;;;2.20;1.23;;;;;;;15.60;63.47;95862.97;127590;1101;25723;-90
2021/05/22 07:46:51;;;;;;;3.18;1.00;;;;;;;15.81;63.20;95865.63;127820;1101;24690;-88
2021/05/22 07:49:20;;;;;;;;;;;;;;;16.11;62.66;95877.73;127820;1101;31076;-85
2021/05/22 07:51:50;;;;;;;5.30;1.35;;;;;;;16.24;61.30;95878.54;127749;1101;46009;-86
2021/05/22 07:54:20;;;;;;;2.98;1.20;;;;;;;16.38;60.79;95879.00;127753;1101;30806;-87
2021/05/22 07:56:50;;;;;;;2.15;1.00;;;;;;;16.61;60.52;95871.34;127706;1096;31199;-87
2021/05/22 07:59:20;;;;;;;1.48;1.03;;;;;;;16.94;59.80;95865.09;127715;1096;31936;-87
2021/05/22 08:01:51;;;;;;;2.40;1.35;;;;;;;17.19;60.35;95859.36;127698;1101;24120;-85
2021/05/22 08:04:21;;;;;;;1.65;1.10;;;;;;;17.39;59.49;95862.20;127607;1097;24353;-87
2021/05/22 08:06:51;;;;;;;1.28;0.98;;;;;;;17.28;58.44;95871.83;127717;1101;24318;-87
2021/05/22 08:09:21;;;;;;;1.98;1.13;;;;;;;17.11;58.34;95862.16;127710;1101;24392;-88
2021/05/22 08:11:52;;;;;;;2.00;1.30;;;;;;;17.05;58.31;95866.98;127789;1101;29266;-88
2021/05/22 08:14:21;;;;;;;;;;;;;;;16.94;57.76;95868.55;127797;1101;24358;-86
2021/05/22 08:16:51;;;;;;;3.48;2.03;;;;;;;16.75;58.04;95871.00;127747;1101;22072;-86
2021/05/22 08:19:21;;;;;;;2.40;1.35;;;;;;;16.59;58.88;95871.64;127771;1096;26233;-87
2021/05/22 08:21:51;;;;;;;12.10;11.23;;;;;;;16.38;58.79;95879.00;127757;1101;33060;-87
2021/05/22 08:24:21;;;;;;;3.85;2.05;;;;;;;16.17;59.09;95875.61;127742;1101;30631;-85
2021/05/22 08:26:51;;;;;;;3.20;1.70;;;;;;;15.96;60.10;95876.47;127617;1101;23515;-85
2021/05/22 08:29:21;;;;;;;5.80;2.25;;;;;;;15.89;60.36;95872.76;127727;1101;23168;-87
2021/05/22 08:31:51;;;;;;;1.55;1.30;;;;;;;15.80;60.77;95875.53;127744;1097;22844;-88
2021/05/22 08:34:21;;;;;;;2.73;1.10;;;;;;;15.78;60.99;95874.30;127753;1101;29788;-87
2021/05/22 08:36:51;;;;;;;4.50;2.25;;;;;;;15.76;61.18;95866.59;127747;1101;23146;-86
2021/05/22 08:39:26;;;;;;;16.05;8.98;;;;;;;15.73;61.24;95869.92;127667;1097;29641;-86
2021/05/22 08:41:56;;;;;;;8.35;5.10;;;;;;;15.66;61.42;95859.78;127761;1101;28305;-89
2021/05/22 08:44:26;;;;;;;7.53;4.08;;;;;;;15.65;62.04;95854.77;127782;1101;34448;-86
2021/05/22 08:46:57;;;;;;;4.75;2.73;;;;;;;15.63;61.87;95848.98;127778;1101;25068;-86
2021/05/22 08:49:40;;;;;;;3.85;2.10;;;;;;;15.60;62.17;95852.28;127854;1101;30271;-91
2021/05/22 08:52:13;;;;;;;6.45;1.85;;;;;;;15.61;62.41;95856.52;127822;1096;26232;-86
2021/05/22 08:54:45;;;;;;;4.23;1.90;;;;;;;15.60;62.60;95850.39;127680;1101;27395;-90
2021/05/22 08:57:15;;;;;;;3.83;1.83;;;;;;;15.59;62.90;95845.35;127740;1101;24363;-88
2021/05/22 08:59:48;;;;;;;4.45;1.50;;;;;;;15.59;63.51;95845.35;127785;1101;24574;-86
2021/05/22 09:02:21;;;;;;;7.95;2.35;;;;;;;15.53;63.24;95842.11;127766;1101;35211;-86
2021/05/22 09:05:18;;;;;;;2.97;1.77;;;;;;;15.49;63.55;95843.11;127759;1101;22882;-86
2021/05/22 09:07:50;;;;;;;3.88;1.63;;;;;;;15.43;63.67;95840.62;127654;1101;23831;-88
2021/05/22 09:10:24;;;;;;;2.93;1.90;;;;;;;15.37;63.93;95847.28;127628;1096;26037;-88
2021/05/22 09:12:58;;;;;;;3.43;1.50;;;;;;;15.34;64.19;95853.28;127625;1096;31352;-87
2021/05/22 09:15:30;;;;;;;4.00;1.80;;;;;;;15.26;64.85;95850.67;127873;1096;26280;-90
2021/05/22 09:18:03;;;;;;;4.35;1.85;;;;;;;15.19;65.35;95861.85;127858;1097;26291;-85
2021/05/22 09:20:36;;;;;;;3.05;1.80;;;;;;;15.12;65.64;95874.95;127745;1096;24154;-86
2021/05/22 09:23:09;;;;;;;2.68;1.55;;;;;;;15.02;65.64;95872.66;127703;1101;66141;-84
2021/05/22 09:25:41;;;;;;;3.40;2.20;;;;;;;14.90;66.32;95877.91;127705;1101;23008;-88
2021/05/22 09:28:13;;;;;;;2.85;2.00;;;;;;;14.66;67.29;95889.98;127812;1096;26296;-86
2021/05/22 09:30:45;;;;;;;4.00;1.80;;;;;;;14.42;68.86;95890.52;127797;1101;23548;-88
2021/05/22 09:33:17;;;;;;;2.40;1.60;;;;;;;14.21;69.25;95898.41;127806;1097;33989;-88
2021/05/22 09:35:55;;;;;;;3.10;2.20;;;;;;;14.03;70.46;95906.78;127547;1097;22793;-86
2021/05/22 09:38:37;;;;;;;2.38;1.88;;;;;;;13.81;72.13;95919.22;127757;1101;23407;-87
2021/05/22 09:41:21;;;;;;;2.08;1.18;;;;;;;13.61;73.73;95923.28;127754;1101;23188;-86
2021/05/22 09:44:09;;;;;;;2.58;1.88;;;;;;;13.45;73.37;95924.85;127844;1101;25106;-84
2021/05/22 09:47:02;;;;;;;3.38;1.75;;;;;;;13.38;73.73;95927.22;127778;1101;24810;-88
2021/05/22 09:49:34;;;;;;;3.28;1.60;;;;;;;13.36;73.18;95922.17;127609;1101;24463;-84
2021/05/22 09:52:07;;;;;;;1.88;1.40;;;;;;;13.34;72.63;95931.58;127788;1101;25968;-86
2021/05/22 09:54:47;;;;;;;1.78;1.33;;;;;;;13.25;72.70;95926.26;127784;1101;24002;-87
2021/05/22 09:57:18;;;;;;;2.97;1.30;;;;;;;13.16;71.62;95921.98;127802;1101;26683;-87
2021/05/22 10:00:19;;;;;;;2.65;1.25;;;;;;;13.06;72.12;95925.70;127754;1101;24379;-86
2021/05/22 10:02:49;;;;;;;;;;;;;;;12.86;73.55;95927.08;127413;1098;26257;-87
2021/05/22 10:05:21;;;;;;;1.55;1.15;;;;;;;12.72;73.75;95934.39;127679;1101;63536;-88
2021/05/22 10:07:54;;;;;;;1.35;1.25;;;;;;;12.61;74.19;95944.52;127766;1096;26232;-87
2021/05/22 10:10:37;;;;;;;1.95;1.18;;;;;;;12.47;75.07;95939.29;127933;1101;37739;-86
2021/05/22 10:13:08;;;;;;;2.80;1.20;;;;;;;12.35;76.01;95947.05;127692;1096;80392;-85
2021/05/22 10:15:39;;;;;;;2.40;1.50;;;;;;;12.26;77.01;95946.23;127807;1101;23313;-85
2021/05/22 10:18:08;;;;;;;;;;;;;;;12.21;77.58;95962.29;127779;1101;23186;-88
2021/05/22 10:20:38;;;;;;;2.85;1.43;;;;;;;12.15;78.19;95964.30;127707;1101;32569;-87
2021/05/22 10:23:08;;;;;;;;;;;;;;;12.07;78.68;95959.70;127760;1101;26579;-89
2021/05/22 10:25:39;;;;;;;4.28;1.50;;;;;;;11.99;78.85;95954.36;127680;1101;22643;-89
2021/05/22 10:28:09;;;;;;;2.85;1.40;;;;;;;11.92;78.48;95959.29;127732;1101;24918;-89
2021/05/22 10:30:40;;;;;;;1.68;1.18;;;;;;;11.91;78.82;95952.41;127721;1096;35190;-88
2021/05/22 10:33:12;;;;;;;1.98;1.73;;;;;;;11.91;79.24;95963.82;127728;1101;34702;-90
2021/05/22 10:35:45;;;;;;;2.05;1.58;;;;;;;11.90;78.85;95964.91;127809;1101;23684;-87
2021/05/22 10:38:37;;;;;;;1.88;1.10;;;;;;;11.90;78.70;95964.91;127742;1101;33057;-91
2021/05/22 10:41:11;;;;;;;1.85;1.20;;;;;;;11.84;78.56;95958.95;127714;1101;23734;-88
2021/05/22 10:43:44;;;;;;;2.25;1.40;;;;;;;11.79;78.97;95977.63;127849;1101;22871;-89
2021/05/22 10:46:15;;;;;;;3.05;1.18;;;;;;;11.74;78.95;95971.64;127796;1101;24134;-92
2021/05/22 10:49:03;;;;;;;2.65;1.38;;;;;;;11.70;78.72;95968.02;127710;1101;24878;-89
2021/05/22 10:51:36;;;;;;;5.28;1.30;;;;;;;11.63;79.05;95971.08;127723;1101;26352;-85
2021/05/22 10:54:13;;;;;;;1.33;0.95;;;;;;;11.55;79.54;95977.11;127709;1101;35864;-85
2021/05/22 10:57:01;;;;;;;1.80;1.23;;;;;;;11.48;79.52;95977.50;127742;1101;25745;-90
2021/05/22 10:59:31;;;;;;;1.25;1.08;;;;;;;11.45;79.43;95977.33;127727;1101;34296;-86
2021/05/22 11:02:01;;;;;;;2.43;1.28;;;;;;;11.44;79.25;95978.41;127767;1101;64974;-86
2021/05/22 11:04:39;;;;;;;1.50;1.00;;;;;;;11.45;79.29;95991.38;127871;1096;25874;-86
2021/05/22 11:07:21;;;;;;;2.53;2.33;;;;;;;11.42;79.47;95988.55;127778;1101;23031;-87
2021/05/22 11:09:57;;;;;;;1.70;1.33;;;;;;;11.38;79.95;95987.55;127777;1101;27302;-85
2021/05/22 11:12:50;;;;;;;19.23;11.85;;;;;;;11.36;80.02;95995.03;127770;1096;27234;-87
2021/05/22 11:15:47;;;;;;;4.10;2.33;;;;;;;11.33;80.25;95996.41;127760;1101;23799;-86
2021/05/22 11:18:21;;;;;;;32.08;12.18;;;;;;;11.33;80.64;96000.94;127755;1097;38507;-90
2021/05/22 11:21:22;;;;;;;8.38;4.15;;;;;;;11.36;80.46;96002.98;127801;1101;23913;-88
2021/05/22 11:24:04;;;;;;;;;;;;;;;11.39;81.03;95994.42;127688;1101;29896;-85
2021/05/22 11:26:58;;;;;;;2.95;1.63;;;;;;;11.46;80.97;95995.61;127719;1101;32027;-86
2021/05/22 11:29:52;;;;;;;2.03;1.83;;;;;;;11.57;80.16;96004.92;127786;1097;29862;-88
2021/05/22 11:32:48;;;;;;;2.58;1.60;;;;;;;11.65;80.39;96002.63;127734;1101;28642;-85
2021/05/22 11:35:39;;;;;;;3.23;1.70;;;;;;;11.72;80.42;95998.49;127737;1101;24805;-90
2021/05/22 11:38:36;;;;;;;2.28;1.80;;;;;;;11.80;79.38;96005.76;127718;1097;26774;-87
2021/05/22 11:41:09;;;;;;;1.17;1.00;;;;;;;11.91;78.30;96000.22;127738;1096;27284;-84
2021/05/22 11:43:42;;;;;;;2.05;1.45;;;;;;;11.97;78.11;96009.66;127617;1101;22902;-84
2021/05/22 11:46:15;;;;;;;2.28;1.60;;;;;;;12.07;78.14;96004.88;127726;1101;28220;-85
2021/05/22 11:48:48;;;;;;;2.03;1.70;;;;;;;12.15;77.54;95998.06;127717;1101;25693;-86
2021/05/22 11:51:25;;;;;;;2.05;1.58;;;;;;;12.20;78.33;96005.90;127732;1101;27075;-91
2021/05/22 11:53:59;;;;;;;1.93;1.53;;;;;;;12.37;78.28;96005.22;127748;1101;30318;-88
2021/05/22 11:56:33;;;;;;;3.10;1.50;;;;;;;12.57;77.03;96003.94;127904;1101;24080;-89